sensor_id;sensor_type;location;lat;lon;timestamp;P1;durP1;ratioP1;P2;durP2;ratioP2
4448;SDS011;2237;51.870;6.160;2023-12-07T00:00:09;12.55;;;5.20;;
4448;SDS011;2237;51.870;6.160;2023-12-07T00:02:36;11.15;;;5.35;;
4448;SDS011;2237;51.870;6.160;2023-12-07T00:05:03;11.10;;;5.30;;
4448;SDS011;2237;51.870;6.160;2023-12-07T00:07:30;18.45;;;5.88;;
4448;SDS011;2237;51.870;6.160;2023-12-07T00:09:56;12.00;;;5.05;;
4448;SDS011;2237;51.870;6.160;2023-12-07T00:12:22;10.63;;;4.82;;
4448;SDS011;2237;51.870;6.160;2023-12-07T00:14:49;10.65;;;4.93;;
4448;SDS011;2237;51.870;6.160;2023-12-07T00:17:16;11.57;;;5.18;;
4448;SDS011;2237;51.870;6.160;2023-12-07T00:19:43;11.30;;;5.13;;
4448;SDS011;2237;51.870;6.160;2023-12-07T00:22:09;11.02;;;5.10;;
4448;SDS011;2237;51.870;6.160;2023-12-07T00:24:36;13.02;;;5.03;;
4448;SDS011;2237;51.870;6.160;2023-12-07T00:27:02;12.10;;;5.15;;
4448;SDS011;2237;51.870;6.160;2023-12-07T00:29:29;11.85;;;4.65;;
4448;SDS011;2237;51.870;6.160;2023-12-07T00:31:55;13.38;;;5.38;;
4448;SDS011;2237;51.870;6.160;2023-12-07T00:34:21;12.05;;;5.28;;
4448;SDS011;2237;51.870;6.160;2023-12-07T00:36:49;14.88;;;5.68;;
4448;SDS011;2237;51.870;6.160;2023-12-07T00:39:15;13.07;;;5.45;;
4448;SDS011;2237;51.870;6.160;2023-12-07T00:41:43;12.88;;;5.38;;
4448;SDS011;2237;51.870;6.160;2023-12-07T00:44:09;13.55;;;5.63;;
4448;SDS011;2237;51.870;6.160;2023-12-07T00:46:36;15.32;;;6.10;;
4448;SDS011;2237;51.870;6.160;2023-12-07T00:49:02;14.68;;;6.07;;
4448;SDS011;2237;51.870;6.160;2023-12-07T00:51:29;13.30;;;5.57;;
4448;SDS011;2237;51.870;6.160;2023-12-07T00:53:55;14.15;;;5.53;;
4448;SDS011;2237;51.870;6.160;2023-12-07T00:56:21;14.05;;;5.72;;
4448;SDS011;2237;51.870;6.160;2023-12-07T00:58:48;14.93;;;5.85;;
4448;SDS011;2237;51.870;6.160;2023-12-07T01:01:14;14.32;;;5.78;;
4448;SDS011;2237;51.870;6.160;2023-12-07T01:03:41;15.10;;;5.82;;
4448;SDS011;2237;51.870;6.160;2023-12-07T01:06:07;11.73;;;5.55;;
4448;SDS011;2237;51.870;6.160;2023-12-07T01:08:34;13.48;;;5.78;;
4448;SDS011;2237;51.870;6.160;2023-12-07T01:11:00;13.52;;;5.93;;
4448;SDS011;2237;51.870;6.160;2023-12-07T01:13:27;12.40;;;5.93;;
4448;SDS011;2237;51.870;6.160;2023-12-07T01:15:53;11.05;;;5.30;;
4448;SDS011;2237;51.870;6.160;2023-12-07T01:18:19;10.80;;;5.35;;
4448;SDS011;2237;51.870;6.160;2023-12-07T01:20:47;13.45;;;5.88;;
4448;SDS011;2237;51.870;6.160;2023-12-07T01:23:14;17.00;;;6.53;;
4448;SDS011;2237;51.870;6.160;2023-12-07T01:25:42;15.65;;;5.70;;
4448;SDS011;2237;51.870;6.160;2023-12-07T01:28:08;19.58;;;5.88;;
4448;SDS011;2237;51.870;6.160;2023-12-07T01:30:35;13.13;;;5.88;;
4448;SDS011;2237;51.870;6.160;2023-12-07T01:33:02;12.63;;;5.57;;
4448;SDS011;2237;51.870;6.160;2023-12-07T01:35:29;11.02;;;5.60;;
4448;SDS011;2237;51.870;6.160;2023-12-07T01:37:55;17.75;;;6.28;;
4448;SDS011;2237;51.870;6.160;2023-12-07T01:40:22;14.27;;;6.28;;
4448;SDS011;2237;51.870;6.160;2023-12-07T01:42:49;13.30;;;5.60;;
4448;SDS011;2237;51.870;6.160;2023-12-07T01:45:16;12.02;;;5.47;;
4448;SDS011;2237;51.870;6.160;2023-12-07T01:47:43;14.90;;;5.78;;
4448;SDS011;2237;51.870;6.160;2023-12-07T01:50:11;16.23;;;6.00;;
4448;SDS011;2237;51.870;6.160;2023-12-07T01:52:43;16.23;;;5.82;;
4448;SDS011;2237;51.870;6.160;2023-12-07T01:55:14;17.85;;;6.65;;
4448;SDS011;2237;51.870;6.160;2023-12-07T01:57:41;16.27;;;6.53;;
4448;SDS011;2237;51.870;6.160;2023-12-07T02:00:11;14.25;;;6.13;;
4448;SDS011;2237;51.870;6.160;2023-12-07T02:02:39;15.32;;;6.47;;
4448;SDS011;2237;51.870;6.160;2023-12-07T02:05:05;12.63;;;5.57;;
4448;SDS011;2237;51.870;6.160;2023-12-07T02:07:33;16.60;;;7.13;;
4448;SDS011;2237;51.870;6.160;2023-12-07T02:10:00;14.75;;;7.18;;
4448;SDS011;2237;51.870;6.160;2023-12-07T02:12:27;15.98;;;6.97;;
4448;SDS011;2237;51.870;6.160;2023-12-07T02:14:55;15.27;;;6.75;;
4448;SDS011;2237;51.870;6.160;2023-12-07T02:17:32;15.82;;;6.85;;
4448;SDS011;2237;51.870;6.160;2023-12-07T02:22:48;14.73;;;6.03;;
4448;SDS011;2237;51.870;6.160;2023-12-07T02:25:18;21.90;;;6.78;;
4448;SDS011;2237;51.870;6.160;2023-12-07T02:27:47;24.15;;;7.15;;
4448;SDS011;2237;51.870;6.160;2023-12-07T02:30:14;20.20;;;7.40;;
4448;SDS011;2237;51.870;6.160;2023-12-07T02:32:42;18.38;;;6.45;;
4448;SDS011;2237;51.870;6.160;2023-12-07T02:35:10;18.15;;;7.03;;
4448;SDS011;2237;51.870;6.160;2023-12-07T02:37:45;16.23;;;6.38;;
4448;SDS011;2237;51.870;6.160;2023-12-07T02:40:17;15.07;;;6.63;;
4448;SDS011;2237;51.870;6.160;2023-12-07T02:42:44;16.23;;;7.35;;
4448;SDS011;2237;51.870;6.160;2023-12-07T02:45:12;17.63;;;6.93;;
4448;SDS011;2237;51.870;6.160;2023-12-07T02:47:39;17.85;;;7.15;;
4448;SDS011;2237;51.870;6.160;2023-12-07T02:50:06;16.77;;;6.93;;
4448;SDS011;2237;51.870;6.160;2023-12-07T02:52:34;20.90;;;7.88;;
4448;SDS011;2237;51.870;6.160;2023-12-07T02:55:01;17.15;;;7.80;;
4448;SDS011;2237;51.870;6.160;2023-12-07T02:57:28;20.63;;;7.47;;
4448;SDS011;2237;51.870;6.160;2023-12-07T02:59:56;20.00;;;7.80;;
4448;SDS011;2237;51.870;6.160;2023-12-07T03:02:22;18.65;;;7.57;;
4448;SDS011;2237;51.870;6.160;2023-12-07T03:04:49;20.23;;;7.25;;
4448;SDS011;2237;51.870;6.160;2023-12-07T03:07:15;15.75;;;7.30;;
4448;SDS011;2237;51.870;6.160;2023-12-07T03:09:42;17.40;;;7.22;;
4448;SDS011;2237;51.870;6.160;2023-12-07T03:12:08;16.52;;;7.82;;
4448;SDS011;2237;51.870;6.160;2023-12-07T03:14:35;19.00;;;7.65;;
4448;SDS011;2237;51.870;6.160;2023-12-07T03:17:01;17.00;;;7.45;;
4448;SDS011;2237;51.870;6.160;2023-12-07T03:19:27;22.13;;;8.25;;
4448;SDS011;2237;51.870;6.160;2023-12-07T03:21:54;15.50;;;7.20;;
4448;SDS011;2237;51.870;6.160;2023-12-07T03:24:20;18.40;;;7.78;;
4448;SDS011;2237;51.870;6.160;2023-12-07T03:26:47;23.90;;;8.15;;
4448;SDS011;2237;51.870;6.160;2023-12-07T03:29:13;16.58;;;6.68;;
4448;SDS011;2237;51.870;6.160;2023-12-07T03:31:39;16.98;;;6.97;;
4448;SDS011;2237;51.870;6.160;2023-12-07T03:34:06;22.83;;;7.63;;
4448;SDS011;2237;51.870;6.160;2023-12-07T03:36:32;17.27;;;7.80;;
4448;SDS011;2237;51.870;6.160;2023-12-07T03:39:00;16.40;;;7.80;;
4448;SDS011;2237;51.870;6.160;2023-12-07T03:41:26;15.07;;;7.07;;
4448;SDS011;2237;51.870;6.160;2023-12-07T03:43:53;18.60;;;7.97;;
4448;SDS011;2237;51.870;6.160;2023-12-07T03:46:19;20.05;;;8.18;;
4448;SDS011;2237;51.870;6.160;2023-12-07T03:48:46;17.10;;;7.25;;
4448;SDS011;2237;51.870;6.160;2023-12-07T03:51:13;16.90;;;7.22;;
4448;SDS011;2237;51.870;6.160;2023-12-07T03:53:42;17.55;;;7.47;;
4448;SDS011;2237;51.870;6.160;2023-12-07T03:56:09;19.27;;;7.72;;
4448;SDS011;2237;51.870;6.160;2023-12-07T03:58:36;16.13;;;7.45;;
4448;SDS011;2237;51.870;6.160;2023-12-07T04:01:02;19.88;;;7.88;;
4448;SDS011;2237;51.870;6.160;2023-12-07T04:03:29;18.45;;;8.13;;
4448;SDS011;2237;51.870;6.160;2023-12-07T04:05:56;15.00;;;7.40;;
4448;SDS011;2237;51.870;6.160;2023-12-07T04:08:22;20.65;;;7.80;;
4448;SDS011;2237;51.870;6.160;2023-12-07T04:10:49;16.23;;;7.35;;
4448;SDS011;2237;51.870;6.160;2023-12-07T04:13:15;18.35;;;8.25;;
4448;SDS011;2237;51.870;6.160;2023-12-07T04:15:41;17.52;;;8.00;;
4448;SDS011;2237;51.870;6.160;2023-12-07T04:18:08;15.57;;;6.95;;
4448;SDS011;2237;51.870;6.160;2023-12-07T04:20:34;18.63;;;7.25;;
4448;SDS011;2237;51.870;6.160;2023-12-07T04:23:01;18.77;;;7.50;;
4448;SDS011;2237;51.870;6.160;2023-12-07T04:25:27;18.75;;;7.68;;
4448;SDS011;2237;51.870;6.160;2023-12-07T04:27:53;20.55;;;8.05;;
4448;SDS011;2237;51.870;6.160;2023-12-07T04:30:20;15.88;;;7.20;;
4448;SDS011;2237;51.870;6.160;2023-12-07T04:32:46;19.10;;;7.07;;
4448;SDS011;2237;51.870;6.160;2023-12-07T04:35:13;16.52;;;7.05;;
4448;SDS011;2237;51.870;6.160;2023-12-07T04:37:40;17.13;;;7.55;;
4448;SDS011;2237;51.870;6.160;2023-12-07T04:40:06;15.80;;;7.47;;
4448;SDS011;2237;51.870;6.160;2023-12-07T04:42:33;17.48;;;7.80;;
4448;SDS011;2237;51.870;6.160;2023-12-07T04:45:00;19.00;;;7.70;;
4448;SDS011;2237;51.870;6.160;2023-12-07T04:47:27;15.57;;;7.30;;
4448;SDS011;2237;51.870;6.160;2023-12-07T04:49:53;20.52;;;7.72;;
4448;SDS011;2237;51.870;6.160;2023-12-07T04:52:20;20.63;;;9.35;;
4448;SDS011;2237;51.870;6.160;2023-12-07T04:54:46;16.80;;;7.07;;
4448;SDS011;2237;51.870;6.160;2023-12-07T04:57:13;21.90;;;8.60;;
4448;SDS011;2237;51.870;6.160;2023-12-07T04:59:39;19.25;;;8.20;;
4448;SDS011;2237;51.870;6.160;2023-12-07T05:02:06;19.05;;;7.38;;
4448;SDS011;2237;51.870;6.160;2023-12-07T05:04:32;19.02;;;7.80;;
4448;SDS011;2237;51.870;6.160;2023-12-07T05:06:59;26.50;;;8.27;;
4448;SDS011;2237;51.870;6.160;2023-12-07T05:09:27;18.85;;;7.57;;
4448;SDS011;2237;51.870;6.160;2023-12-07T05:11:57;27.17;;;8.60;;
4448;SDS011;2237;51.870;6.160;2023-12-07T05:14:24;35.80;;;8.23;;
4448;SDS011;2237;51.870;6.160;2023-12-07T05:16:50;36.47;;;9.73;;
4448;SDS011;2237;51.870;6.160;2023-12-07T05:19:22;23.90;;;7.43;;
4448;SDS011;2237;51.870;6.160;2023-12-07T05:21:49;48.90;;;9.38;;
4448;SDS011;2237;51.870;6.160;2023-12-07T05:24:16;27.08;;;7.38;;
4448;SDS011;2237;51.870;6.160;2023-12-07T05:26:43;20.38;;;7.10;;
4448;SDS011;2237;51.870;6.160;2023-12-07T05:29:10;28.13;;;8.93;;
4448;SDS011;2237;51.870;6.160;2023-12-07T05:31:36;23.58;;;7.80;;
4448;SDS011;2237;51.870;6.160;2023-12-07T05:34:03;60.75;;;7.90;;
4448;SDS011;2237;51.870;6.160;2023-12-07T05:36:30;14.68;;;6.63;;
4448;SDS011;2237;51.870;6.160;2023-12-07T05:38:56;55.20;;;8.38;;
4448;SDS011;2237;51.870;6.160;2023-12-07T05:41:22;13.60;;;5.90;;
4448;SDS011;2237;51.870;6.160;2023-12-07T05:43:49;20.67;;;7.28;;
4448;SDS011;2237;51.870;6.160;2023-12-07T05:46:16;49.65;;;8.30;;
4448;SDS011;2237;51.870;6.160;2023-12-07T05:48:42;26.98;;;8.18;;
4448;SDS011;2237;51.870;6.160;2023-12-07T05:51:16;25.75;;;7.35;;
4448;SDS011;2237;51.870;6.160;2023-12-07T05:53:43;32.75;;;7.82;;
4448;SDS011;2237;51.870;6.160;2023-12-07T05:56:10;31.48;;;8.45;;
4448;SDS011;2237;51.870;6.160;2023-12-07T05:58:38;35.22;;;8.77;;
4448;SDS011;2237;51.870;6.160;2023-12-07T06:01:04;40.85;;;8.98;;
4448;SDS011;2237;51.870;6.160;2023-12-07T06:03:31;39.47;;;8.50;;
4448;SDS011;2237;51.870;6.160;2023-12-07T06:05:58;27.05;;;8.00;;
4448;SDS011;2237;51.870;6.160;2023-12-07T06:08:25;24.48;;;8.88;;
4448;SDS011;2237;51.870;6.160;2023-12-07T06:10:51;50.60;;;9.55;;
4448;SDS011;2237;51.870;6.160;2023-12-07T06:13:17;35.97;;;9.23;;
4448;SDS011;2237;51.870;6.160;2023-12-07T06:15:44;40.90;;;9.38;;
4448;SDS011;2237;51.870;6.160;2023-12-07T06:18:10;29.58;;;9.18;;
4448;SDS011;2237;51.870;6.160;2023-12-07T06:20:37;23.85;;;7.80;;
4448;SDS011;2237;51.870;6.160;2023-12-07T06:23:03;39.10;;;9.13;;
4448;SDS011;2237;51.870;6.160;2023-12-07T06:25:30;56.35;;;9.52;;
4448;SDS011;2237;51.870;6.160;2023-12-07T06:27:56;29.25;;;8.65;;
4448;SDS011;2237;51.870;6.160;2023-12-07T06:30:23;51.03;;;9.65;;
4448;SDS011;2237;51.870;6.160;2023-12-07T06:32:50;39.38;;;8.85;;
4448;SDS011;2237;51.870;6.160;2023-12-07T06:35:17;30.65;;;8.77;;
4448;SDS011;2237;51.870;6.160;2023-12-07T06:37:43;36.50;;;7.82;;
4448;SDS011;2237;51.870;6.160;2023-12-07T06:40:10;57.00;;;8.93;;
4448;SDS011;2237;51.870;6.160;2023-12-07T06:42:37;47.47;;;9.73;;
4448;SDS011;2237;51.870;6.160;2023-12-07T06:45:04;32.55;;;7.65;;
4448;SDS011;2237;51.870;6.160;2023-12-07T06:47:31;33.33;;;7.78;;
4448;SDS011;2237;51.870;6.160;2023-12-07T06:49:58;47.13;;;8.82;;
4448;SDS011;2237;51.870;6.160;2023-12-07T06:52:24;30.38;;;7.95;;
4448;SDS011;2237;51.870;6.160;2023-12-07T06:54:51;19.42;;;8.20;;
4448;SDS011;2237;51.870;6.160;2023-12-07T06:57:17;34.30;;;7.75;;
4448;SDS011;2237;51.870;6.160;2023-12-07T06:59:44;44.25;;;9.32;;
4448;SDS011;2237;51.870;6.160;2023-12-07T07:02:10;56.08;;;9.57;;
4448;SDS011;2237;51.870;6.160;2023-12-07T07:04:37;50.38;;;9.57;;
4448;SDS011;2237;51.870;6.160;2023-12-07T07:07:03;46.20;;;10.38;;
4448;SDS011;2237;51.870;6.160;2023-12-07T07:09:30;35.83;;;9.60;;
4448;SDS011;2237;51.870;6.160;2023-12-07T07:11:56;27.85;;;8.95;;
4448;SDS011;2237;51.870;6.160;2023-12-07T07:14:23;52.15;;;10.00;;
4448;SDS011;2237;51.870;6.160;2023-12-07T07:16:49;35.47;;;8.40;;
4448;SDS011;2237;51.870;6.160;2023-12-07T07:19:16;33.97;;;8.02;;
4448;SDS011;2237;51.870;6.160;2023-12-07T07:21:43;72.40;;;11.13;;
4448;SDS011;2237;51.870;6.160;2023-12-07T07:24:10;39.63;;;9.63;;
4448;SDS011;2237;51.870;6.160;2023-12-07T07:26:36;33.63;;;8.57;;
4448;SDS011;2237;51.870;6.160;2023-12-07T07:29:02;32.40;;;8.02;;
4448;SDS011;2237;51.870;6.160;2023-12-07T07:31:30;49.55;;;10.32;;
4448;SDS011;2237;51.870;6.160;2023-12-07T07:33:56;55.33;;;8.98;;
4448;SDS011;2237;51.870;6.160;2023-12-07T07:36:26;44.55;;;9.93;;
4448;SDS011;2237;51.870;6.160;2023-12-07T07:38:53;56.97;;;8.82;;
4448;SDS011;2237;51.870;6.160;2023-12-07T07:41:20;72.30;;;9.93;;
4448;SDS011;2237;51.870;6.160;2023-12-07T07:43:47;35.78;;;9.73;;
4448;SDS011;2237;51.870;6.160;2023-12-07T07:46:13;28.02;;;8.32;;
4448;SDS011;2237;51.870;6.160;2023-12-07T07:48:40;33.67;;;8.27;;
4448;SDS011;2237;51.870;6.160;2023-12-07T07:51:07;33.08;;;9.50;;
4448;SDS011;2237;51.870;6.160;2023-12-07T07:53:33;32.33;;;8.90;;
4448;SDS011;2237;51.870;6.160;2023-12-07T07:56:00;29.63;;;8.43;;
4448;SDS011;2237;51.870;6.160;2023-12-07T07:58:27;40.03;;;9.40;;
4448;SDS011;2237;51.870;6.160;2023-12-07T08:00:53;42.72;;;9.40;;
4448;SDS011;2237;51.870;6.160;2023-12-07T08:03:20;38.90;;;9.00;;
4448;SDS011;2237;51.870;6.160;2023-12-07T08:05:46;73.47;;;11.13;;
4448;SDS011;2237;51.870;6.160;2023-12-07T08:08:13;76.70;;;11.20;;
4448;SDS011;2237;51.870;6.160;2023-12-07T08:10:39;46.05;;;10.00;;
4448;SDS011;2237;51.870;6.160;2023-12-07T08:13:21;26.98;;;8.70;;
4448;SDS011;2237;51.870;6.160;2023-12-07T08:15:47;42.53;;;10.02;;
4448;SDS011;2237;51.870;6.160;2023-12-07T08:18:14;20.35;;;8.23;;
4448;SDS011;2237;51.870;6.160;2023-12-07T08:20:40;27.00;;;8.35;;
4448;SDS011;2237;51.870;6.160;2023-12-07T08:23:07;32.55;;;9.63;;
4448;SDS011;2237;51.870;6.160;2023-12-07T08:25:34;25.15;;;8.48;;
4448;SDS011;2237;51.870;6.160;2023-12-07T08:28:00;29.75;;;8.45;;
4448;SDS011;2237;51.870;6.160;2023-12-07T08:30:27;44.45;;;8.30;;
4448;SDS011;2237;51.870;6.160;2023-12-07T08:32:53;67.05;;;8.60;;
4448;SDS011;2237;51.870;6.160;2023-12-07T08:35:20;56.90;;;8.60;;
4448;SDS011;2237;51.870;6.160;2023-12-07T08:37:46;26.77;;;7.75;;
4448;SDS011;2237;51.870;6.160;2023-12-07T08:40:13;49.95;;;9.07;;
4448;SDS011;2237;51.870;6.160;2023-12-07T08:42:44;35.17;;;7.82;;
4448;SDS011;2237;51.870;6.160;2023-12-07T08:45:16;30.27;;;6.93;;
4448;SDS011;2237;51.870;6.160;2023-12-07T08:47:42;28.92;;;7.28;;
4448;SDS011;2237;51.870;6.160;2023-12-07T08:50:09;22.63;;;5.90;;
4448;SDS011;2237;51.870;6.160;2023-12-07T08:52:35;20.60;;;6.53;;
4448;SDS011;2237;51.870;6.160;2023-12-07T08:55:12;32.22;;;6.57;;
4448;SDS011;2237;51.870;6.160;2023-12-07T08:57:41;16.75;;;6.13;;
4448;SDS011;2237;51.870;6.160;2023-12-07T09:00:08;30.73;;;5.78;;
4448;SDS011;2237;51.870;6.160;2023-12-07T09:02:34;24.15;;;4.22;;
4448;SDS011;2237;51.870;6.160;2023-12-07T09:05:12;30.55;;;5.47;;
4448;SDS011;2237;51.870;6.160;2023-12-07T09:07:39;23.70;;;4.90;;
4448;SDS011;2237;51.870;6.160;2023-12-07T09:10:06;19.23;;;4.93;;
4448;SDS011;2237;51.870;6.160;2023-12-07T09:12:35;21.42;;;5.22;;
4448;SDS011;2237;51.870;6.160;2023-12-07T09:15:05;18.15;;;4.70;;
4448;SDS011;2237;51.870;6.160;2023-12-07T09:17:37;16.73;;;3.90;;
4448;SDS011;2237;51.870;6.160;2023-12-07T09:20:06;14.45;;;4.47;;
4448;SDS011;2237;51.870;6.160;2023-12-07T09:22:39;21.23;;;3.90;;
4448;SDS011;2237;51.870;6.160;2023-12-07T09:25:07;22.30;;;4.47;;
4448;SDS011;2237;51.870;6.160;2023-12-07T09:27:34;19.52;;;4.70;;
4448;SDS011;2237;51.870;6.160;2023-12-07T09:30:06;12.27;;;4.65;;
4448;SDS011;2237;51.870;6.160;2023-12-07T09:32:37;17.05;;;4.15;;
4448;SDS011;2237;51.870;6.160;2023-12-07T09:35:04;10.02;;;3.65;;
4448;SDS011;2237;51.870;6.160;2023-12-07T09:37:33;24.30;;;5.07;;
4448;SDS011;2237;51.870;6.160;2023-12-07T09:40:00;10.65;;;3.90;;
4448;SDS011;2237;51.870;6.160;2023-12-07T09:42:27;11.23;;;4.13;;
4448;SDS011;2237;51.870;6.160;2023-12-07T09:45:02;22.88;;;4.68;;
4448;SDS011;2237;51.870;6.160;2023-12-07T09:47:28;18.33;;;5.22;;
4448;SDS011;2237;51.870;6.160;2023-12-07T09:50:03;13.32;;;4.45;;
4448;SDS011;2237;51.870;6.160;2023-12-07T09:52:36;16.75;;;4.13;;
4448;SDS011;2237;51.870;6.160;2023-12-07T09:55:03;15.82;;;4.80;;
4448;SDS011;2237;51.870;6.160;2023-12-07T09:57:30;16.52;;;5.25;;
4448;SDS011;2237;51.870;6.160;2023-12-07T09:59:58;10.55;;;4.55;;
4448;SDS011;2237;51.870;6.160;2023-12-07T10:02:24;20.33;;;4.78;;
4448;SDS011;2237;51.870;6.160;2023-12-07T10:05:07;19.95;;;4.75;;
4448;SDS011;2237;51.870;6.160;2023-12-07T10:07:39;26.80;;;5.03;;
4448;SDS011;2237;51.870;6.160;2023-12-07T10:10:06;14.13;;;5.55;;
4448;SDS011;2237;51.870;6.160;2023-12-07T10:12:36;17.73;;;5.47;;
4448;SDS011;2237;51.870;6.160;2023-12-07T10:15:21;16.33;;;6.03;;
4448;SDS011;2237;51.870;6.160;2023-12-07T10:17:55;22.02;;;5.45;;
4448;SDS011;2237;51.870;6.160;2023-12-07T10:20:27;22.25;;;6.97;;
4448;SDS011;2237;51.870;6.160;2023-12-07T10:23:05;20.33;;;6.80;;
4448;SDS011;2237;51.870;6.160;2023-12-07T10:25:40;20.30;;;6.20;;
4448;SDS011;2237;51.870;6.160;2023-12-07T10:28:09;20.38;;;6.45;;
4448;SDS011;2237;51.870;6.160;2023-12-07T10:30:39;18.08;;;6.25;;
4448;SDS011;2237;51.870;6.160;2023-12-07T10:33:09;26.30;;;7.45;;
4448;SDS011;2237;51.870;6.160;2023-12-07T10:35:39;20.73;;;5.63;;
4448;SDS011;2237;51.870;6.160;2023-12-07T10:38:07;24.65;;;6.65;;
4448;SDS011;2237;51.870;6.160;2023-12-07T10:40:35;21.88;;;7.10;;
4448;SDS011;2237;51.870;6.160;2023-12-07T10:43:04;19.35;;;7.18;;
4448;SDS011;2237;51.870;6.160;2023-12-07T10:45:32;25.17;;;7.50;;
4448;SDS011;2237;51.870;6.160;2023-12-07T10:48:05;19.67;;;6.90;;
4448;SDS011;2237;51.870;6.160;2023-12-07T10:50:34;26.65;;;7.85;;
4448;SDS011;2237;51.870;6.160;2023-12-07T10:53:04;24.48;;;6.85;;
4448;SDS011;2237;51.870;6.160;2023-12-07T10:55:56;26.30;;;6.95;;
4448;SDS011;2237;51.870;6.160;2023-12-07T10:58:27;19.75;;;6.20;;
4448;SDS011;2237;51.870;6.160;2023-12-07T11:00:54;24.23;;;7.07;;
4448;SDS011;2237;51.870;6.160;2023-12-07T11:03:21;29.75;;;7.70;;
4448;SDS011;2237;51.870;6.160;2023-12-07T11:05:49;27.95;;;8.02;;
4448;SDS011;2237;51.870;6.160;2023-12-07T11:08:19;20.75;;;7.15;;
4448;SDS011;2237;51.870;6.160;2023-12-07T11:10:58;20.08;;;6.30;;
4448;SDS011;2237;51.870;6.160;2023-12-07T11:13:36;24.00;;;6.93;;
4448;SDS011;2237;51.870;6.160;2023-12-07T11:16:04;24.77;;;6.95;;
4448;SDS011;2237;51.870;6.160;2023-12-07T11:18:31;17.58;;;6.35;;
4448;SDS011;2237;51.870;6.160;2023-12-07T11:20:57;21.75;;;7.32;;
4448;SDS011;2237;51.870;6.160;2023-12-07T11:23:25;23.48;;;7.70;;
4448;SDS011;2237;51.870;6.160;2023-12-07T11:25:53;19.58;;;6.10;;
4448;SDS011;2237;51.870;6.160;2023-12-07T11:28:34;14.73;;;5.68;;
4448;SDS011;2237;51.870;6.160;2023-12-07T11:31:08;21.55;;;7.97;;
4448;SDS011;2237;51.870;6.160;2023-12-07T11:33:38;20.67;;;8.05;;
4448;SDS011;2237;51.870;6.160;2023-12-07T11:38:33;28.88;;;7.28;;
4448;SDS011;2237;51.870;6.160;2023-12-07T11:41:00;26.08;;;8.07;;
4448;SDS011;2237;51.870;6.160;2023-12-07T11:43:32;23.05;;;7.45;;
4448;SDS011;2237;51.870;6.160;2023-12-07T11:46:04;13.65;;;3.95;;
4448;SDS011;2237;51.870;6.160;2023-12-07T11:48:31;22.83;;;7.55;;
4448;SDS011;2237;51.870;6.160;2023-12-07T11:53:29;24.40;;;8.43;;
4448;SDS011;2237;51.870;6.160;2023-12-07T11:55:57;21.00;;;6.90;;
4448;SDS011;2237;51.870;6.160;2023-12-07T11:58:28;23.00;;;8.27;;
4448;SDS011;2237;51.870;6.160;2023-12-07T12:00:56;25.23;;;8.38;;
4448;SDS011;2237;51.870;6.160;2023-12-07T12:03:24;28.02;;;8.77;;
4448;SDS011;2237;51.870;6.160;2023-12-07T12:05:51;29.85;;;8.15;;
4448;SDS011;2237;51.870;6.160;2023-12-07T12:08:18;24.45;;;7.88;;
4448;SDS011;2237;51.870;6.160;2023-12-07T12:10:45;25.80;;;8.63;;
4448;SDS011;2237;51.870;6.160;2023-12-07T12:13:12;29.05;;;9.93;;
4448;SDS011;2237;51.870;6.160;2023-12-07T12:15:39;26.77;;;9.20;;
4448;SDS011;2237;51.870;6.160;2023-12-07T12:18:06;23.98;;;8.10;;
4448;SDS011;2237;51.870;6.160;2023-12-07T12:20:33;23.40;;;7.95;;
4448;SDS011;2237;51.870;6.160;2023-12-07T12:23:00;26.42;;;8.88;;
4448;SDS011;2237;51.870;6.160;2023-12-07T12:25:28;19.73;;;8.52;;
4448;SDS011;2237;51.870;6.160;2023-12-07T12:27:57;24.15;;;8.13;;
4448;SDS011;2237;51.870;6.160;2023-12-07T12:30:29;26.55;;;8.75;;
4448;SDS011;2237;51.870;6.160;2023-12-07T12:32:57;24.23;;;8.93;;
4448;SDS011;2237;51.870;6.160;2023-12-07T12:35:24;24.30;;;9.23;;
4448;SDS011;2237;51.870;6.160;2023-12-07T12:37:51;24.13;;;8.73;;
4448;SDS011;2237;51.870;6.160;2023-12-07T12:40:18;24.98;;;9.57;;
4448;SDS011;2237;51.870;6.160;2023-12-07T12:42:46;25.58;;;9.35;;
4448;SDS011;2237;51.870;6.160;2023-12-07T12:45:14;24.92;;;8.90;;
4448;SDS011;2237;51.870;6.160;2023-12-07T12:47:41;27.88;;;8.82;;
4448;SDS011;2237;51.870;6.160;2023-12-07T12:50:12;26.10;;;9.18;;
4448;SDS011;2237;51.870;6.160;2023-12-07T12:52:58;27.30;;;9.45;;
4448;SDS011;2237;51.870;6.160;2023-12-07T12:55:25;28.58;;;8.77;;
4448;SDS011;2237;51.870;6.160;2023-12-07T12:57:52;28.58;;;10.20;;
4448;SDS011;2237;51.870;6.160;2023-12-07T13:00:19;25.88;;;9.57;;
4448;SDS011;2237;51.870;6.160;2023-12-07T13:02:45;22.17;;;7.47;;
4448;SDS011;2237;51.870;6.160;2023-12-07T13:05:11;24.95;;;8.30;;
4448;SDS011;2237;51.870;6.160;2023-12-07T13:07:38;27.10;;;10.55;;
4448;SDS011;2237;51.870;6.160;2023-12-07T13:10:05;26.02;;;9.52;;
4448;SDS011;2237;51.870;6.160;2023-12-07T13:12:34;20.52;;;8.85;;
4448;SDS011;2237;51.870;6.160;2023-12-07T13:15:01;24.45;;;9.73;;
4448;SDS011;2237;51.870;6.160;2023-12-07T13:17:28;26.20;;;9.45;;
4448;SDS011;2237;51.870;6.160;2023-12-07T13:19:55;22.20;;;8.82;;
4448;SDS011;2237;51.870;6.160;2023-12-07T13:22:21;26.67;;;9.90;;
4448;SDS011;2237;51.870;6.160;2023-12-07T13:24:48;18.45;;;8.80;;
4448;SDS011;2237;51.870;6.160;2023-12-07T13:27:16;27.13;;;9.25;;
4448;SDS011;2237;51.870;6.160;2023-12-07T13:29:42;19.25;;;8.63;;
4448;SDS011;2237;51.870;6.160;2023-12-07T13:32:09;22.30;;;9.65;;
4448;SDS011;2237;51.870;6.160;2023-12-07T13:34:36;22.45;;;9.43;;
4448;SDS011;2237;51.870;6.160;2023-12-07T13:37:02;21.73;;;8.90;;
4448;SDS011;2237;51.870;6.160;2023-12-07T13:39:29;20.38;;;9.13;;
4448;SDS011;2237;51.870;6.160;2023-12-07T13:41:58;20.27;;;9.00;;
4448;SDS011;2237;51.870;6.160;2023-12-07T13:44:29;20.77;;;8.77;;
4448;SDS011;2237;51.870;6.160;2023-12-07T13:46:57;17.45;;;7.30;;
4448;SDS011;2237;51.870;6.160;2023-12-07T13:49:24;21.13;;;9.10;;
4448;SDS011;2237;51.870;6.160;2023-12-07T13:51:59;22.13;;;9.50;;
4448;SDS011;2237;51.870;6.160;2023-12-07T13:54:34;18.73;;;8.02;;
4448;SDS011;2237;51.870;6.160;2023-12-07T13:57:19;22.48;;;8.75;;
4448;SDS011;2237;51.870;6.160;2023-12-07T13:59:54;18.67;;;8.35;;
4448;SDS011;2237;51.870;6.160;2023-12-07T14:02:20;22.23;;;9.95;;
4448;SDS011;2237;51.870;6.160;2023-12-07T14:04:47;23.40;;;9.70;;
4448;SDS011;2237;51.870;6.160;2023-12-07T14:07:18;22.27;;;10.18;;
4448;SDS011;2237;51.870;6.160;2023-12-07T14:09:47;22.75;;;9.63;;
4448;SDS011;2237;51.870;6.160;2023-12-07T14:12:24;18.95;;;8.75;;
4448;SDS011;2237;51.870;6.160;2023-12-07T14:14:51;20.58;;;9.07;;
4448;SDS011;2237;51.870;6.160;2023-12-07T14:17:17;18.58;;;8.02;;
4448;SDS011;2237;51.870;6.160;2023-12-07T14:19:46;15.20;;;7.28;;
4448;SDS011;2237;51.870;6.160;2023-12-07T14:22:15;18.65;;;8.27;;
4448;SDS011;2237;51.870;6.160;2023-12-07T14:24:41;21.48;;;8.02;;
4448;SDS011;2237;51.870;6.160;2023-12-07T14:27:08;17.85;;;8.30;;
4448;SDS011;2237;51.870;6.160;2023-12-07T14:29:34;22.60;;;8.95;;
4448;SDS011;2237;51.870;6.160;2023-12-07T14:32:01;15.10;;;7.13;;
4448;SDS011;2237;51.870;6.160;2023-12-07T14:34:30;21.95;;;9.35;;
4448;SDS011;2237;51.870;6.160;2023-12-07T14:39:29;19.88;;;8.02;;
4448;SDS011;2237;51.870;6.160;2023-12-07T14:41:55;22.80;;;9.10;;
4448;SDS011;2237;51.870;6.160;2023-12-07T14:44:23;20.75;;;7.65;;
4448;SDS011;2237;51.870;6.160;2023-12-07T14:46:55;24.52;;;9.20;;
4448;SDS011;2237;51.870;6.160;2023-12-07T14:49:22;23.20;;;9.02;;
4448;SDS011;2237;51.870;6.160;2023-12-07T14:51:49;22.50;;;9.57;;
4448;SDS011;2237;51.870;6.160;2023-12-07T14:54:16;18.55;;;7.53;;
4448;SDS011;2237;51.870;6.160;2023-12-07T14:56:51;13.13;;;4.85;;
4448;SDS011;2237;51.870;6.160;2023-12-07T14:59:18;23.25;;;8.85;;
4448;SDS011;2237;51.870;6.160;2023-12-07T15:01:46;17.02;;;7.28;;
4448;SDS011;2237;51.870;6.160;2023-12-07T15:04:12;19.70;;;7.85;;
4448;SDS011;2237;51.870;6.160;2023-12-07T15:06:53;12.20;;;5.15;;
4448;SDS011;2237;51.870;6.160;2023-12-07T15:09:21;15.40;;;6.70;;
4448;SDS011;2237;51.870;6.160;2023-12-07T15:11:47;24.15;;;8.98;;
4448;SDS011;2237;51.870;6.160;2023-12-07T15:14:14;22.20;;;9.60;;